Time;durP1;ratioP1;P1;durP2;ratioP2;P2;SDS_P1;SDS_P2;PMS_P1;PMS_P2;Temp;Humidity;BMP_temperature;BMP_pressure;BME280_temperature;BME280_humidity;BME280_pressure;Samples;Min_cycle;Max_cycle;Signal;HPM_P1;HPM_P2
2023/12/28 05:02:37;;;;;;;2.70;2.47;;;8.30;99.90;;;;;;4870546;29;20272;-73
2023/12/28 05:05:05;;;;;;;3.92;2.28;;;8.30;99.90;;;;;;4877546;29;20212;-72
2023/12/28 05:07:31;;;;;;;2.60;2.50;;;8.20;99.90;;;;;;4881771;29;20243;-72
2023/12/28 05:09:58;;;;;;;2.28;2.10;;;8.30;99.90;;;;;;4879459;29;20670;-72
2023/12/28 05:12:25;;;;;;;1.63;1.55;;;8.30;99.90;;;;;;4895018;29;20234;-72
2023/12/28 05:14:51;;;;;;;2.65;2.38;;;8.30;99.90;;;;;;4897546;29;20207;-72
2023/12/28 05:17:18;;;;;;;2.25;2.15;;;8.30;99.90;;;;;;4898501;29;20207;-73
2023/12/28 05:19:47;;;;;;;3.80;1.95;;;8.30;99.90;;;;;;4898425;29;20207;-72
2023/12/28 05:22:13;;;;;;;2.47;2.38;;;8.30;99.90;;;;;;4896497;29;20238;-73
2023/12/28 05:24:40;;;;;;;2.80;2.63;;;8.30;99.90;;;;;;4893410;29;20214;-73
2023/12/28 05:27:07;;;;;;;3.80;2.50;;;8.40;99.90;;;;;;4894946;29;20231;-72
2023/12/28 05:29:33;;;;;;;2.50;2.30;;;8.40;99.90;;;;;;4894553;29;20211;-73
2023/12/28 05:32:00;;;;;;;2.60;2.28;;;8.40;99.90;;;;;;4895175;29;20247;-72
2023/12/28 05:34:27;;;;;;;2.67;2.47;;;8.40;99.90;;;;;;4895885;29;20222;-72
2023/12/28 05:36:55;;;;;;;4.13;2.30;;;8.40;99.90;;;;;;4901274;29;20207;-73
2023/12/28 05:39:21;;;;;;;2.40;2.38;;;8.40;99.90;;;;;;4902479;29;20223;-73
2023/12/28 05:41:50;;;;;;;2.03;2.03;;;8.50;99.90;;;;;;4899058;29;20230;-73
2023/12/28 05:44:17;;;;;;;2.05;1.95;;;8.50;99.90;;;;;;4899179;29;20207;-73
2023/12/28 05:46:44;;;;;;;2.05;1.95;;;8.50;99.90;;;;;;4897953;29;20238;-73
2023/12/28 05:49:10;;;;;;;2.78;2.67;;;8.50;99.90;;;;;;4898974;29;20659;-73
2023/12/28 05:51:40;;;;;;;3.75;3.50;;;8.60;99.90;;;;;;4898536;29;20235;-73
2023/12/28 05:54:09;;;;;;;2.55;2.35;;;8.70;99.90;;;;;;4897669;29;20211;-72
2023/12/28 05:56:36;;;;;;;3.00;2.90;;;8.60;99.90;;;;;;4894195;29;20236;-73
2023/12/28 05:59:02;;;;;;;2.33;2.22;;;8.60;99.90;;;;;;4897411;29;20214;-72
2023/12/28 06:01:29;;;;;;;1.70;1.70;;;8.70;99.90;;;;;;4897253;29;20246;-73
2023/12/28 06:03:56;;;;;;;2.25;2.13;;;8.80;99.90;;;;;;4895956;29;20210;-73
2023/12/28 06:06:22;;;;;;;2.75;2.47;;;8.80;99.90;;;;;;4895807;29;20214;-73
2023/12/28 06:08:49;;;;;;;2.67;2.47;;;8.80;99.90;;;;;;4895441;29;20225;-73
2023/12/28 06:11:17;;;;;;;2.60;1.80;;;8.80;99.90;;;;;;4893337;29;20235;-73
2023/12/28 06:13:44;;;;;;;2.47;2.38;;;8.80;99.90;;;;;;4895260;29;20207;-72
2023/12/28 06:16:11;;;;;;;4.75;3.08;;;8.80;99.90;;;;;;4896778;29;20563;-73
2023/12/28 06:18:38;;;;;;;2.60;1.90;;;8.80;99.90;;;;;;4895778;29;20243;-73
2023/12/28 06:21:06;;;;;;;2.17;1.90;;;8.80;99.90;;;;;;4895077;29;20316;-73
2023/12/28 06:23:33;;;;;;;2.00;1.88;;;8.70;99.90;;;;;;4894282;29;20690;-72
2023/12/28 06:26:04;;;;;;;2.45;2.35;;;8.80;99.90;;;;;;4893119;29;20297;-73
2023/12/28 06:28:32;;;;;;;5.32;2.42;;;8.80;99.90;;;;;;4896092;29;20617;-72
2023/12/28 06:31:00;;;;;;;2.38;2.17;;;8.90;99.90;;;;;;4894985;29;20225;-72
2023/12/28 06:33:28;;;;;;;2.03;1.88;;;8.90;99.90;;;;;;4895462;29;20214;-72
2023/12/28 06:35:57;;;;;;;3.92;2.60;;;8.90;99.90;;;;;;4897029;29;20283;-72
2023/12/28 06:38:24;;;;;;;2.25;1.85;;;9.00;99.90;;;;;;4896853;29;20212;-72
2023/12/28 06:40:51;;;;;;;4.30;2.50;;;8.90;99.90;;;;;;4896802;29;20733;-72
2023/12/28 06:43:17;;;;;;;2.33;2.33;;;8.90;99.90;;;;;;4896157;29;20219;-72
2023/12/28 06:45:45;;;;;;;2.20;2.15;;;8.90;99.90;;;;;;4895817;29;20211;-72
2023/12/28 06:48:12;;;;;;;2.67;2.50;;;8.90;99.90;;;;;;4896090;29;20232;-72
2023/12/28 06:50:39;;;;;;;2.45;1.70;;;8.90;99.90;;;;;;4892620;29;20231;-73
2023/12/28 06:53:06;;;;;;;2.63;2.45;;;9.00;99.90;;;;;;4891487;29;20211;-72
2023/12/28 06:55:32;;;;;;;2.35;2.17;;;9.00;99.90;;;;;;4895479;29;20215;-73
2023/12/28 06:57:59;;;;;;;2.35;2.25;;;8.90;99.90;;;;;;4893825;29;20203;-72
2023/12/28 07:00:26;;;;;;;8.73;2.60;;;9.00;99.90;;;;;;4857408;29;1057863;-73
2023/12/28 07:02:54;;;;;;;4.78;2.30;;;9.00;99.90;;;;;;4895210;29;20583;-73
2023/12/28 07:05:21;;;;;;;2.22;2.13;;;9.00;99.90;;;;;;4895511;29;20303;-72
2023/12/28 07:07:48;;;;;;;2.50;1.90;;;9.00;99.90;;;;;;4895848;29;20234;-72
2023/12/28 07:10:15;;;;;;;4.07;2.30;;;9.10;99.90;;;;;;4896210;29;20204;-73
2023/12/28 07:12:41;;;;;;;2.92;2.08;;;9.10;99.90;;;;;;4900564;29;20215;-73
2023/12/28 07:15:13;;;;;;;2.22;2.13;;;9.20;99.90;;;;;;4903789;29;21647;-73
2023/12/28 07:17:40;;;;;;;2.10;2.00;;;9.30;99.90;;;;;;4895836;29;20292;-74
2023/12/28 07:20:10;;;;;;;1.83;1.83;;;9.30;99.90;;;;;;4897681;29;20683;-74
2023/12/28 07:22:37;;;;;;;2.42;2.33;;;9.30;99.90;;;;;;4896911;29;20204;-73
2023/12/28 07:25:05;;;;;;;4.65;2.05;;;9.30;99.90;;;;;;4896642;29;20588;-74
2023/12/28 07:27:31;;;;;;;2.95;1.95;;;9.30;99.90;;;;;;4897300;29;20236;-74
2023/12/28 07:29:58;;;;;;;2.63;2.42;;;9.30;99.90;;;;;;4898066;29;20215;-73
2023/12/28 07:32:26;;;;;;;3.13;1.98;;;9.40;99.90;;;;;;4895484;29;20854;-74
2023/12/28 07:34:52;;;;;;;1.98;1.88;;;9.40;99.90;;;;;;4898300;29;20635;-74
2023/12/28 07:37:21;;;;;;;1.92;1.83;;;9.50;99.90;;;;;;4901031;29;20220;-74
2023/12/28 07:39:47;;;;;;;1.95;1.95;;;9.60;99.90;;;;;;4897322;29;20232;-74
2023/12/28 07:42:15;;;;;;;1.80;1.80;;;9.50;99.90;;;;;;4897934;29;20245;-73
2023/12/28 07:44:42;;;;;;;2.10;2.00;;;9.60;99.90;;;;;;4899391;29;20599;-72
2023/12/28 07:47:08;;;;;;;1.85;1.80;;;9.60;99.90;;;;;;4898312;29;20217;-72
2023/12/28 07:49:35;;;;;;;1.65;1.58;;;9.50;99.90;;;;;;4895020;29;20215;-74
2023/12/28 07:52:02;;;;;;;1.95;1.80;;;9.40;99.90;;;;;;4902700;29;20236;-74
2023/12/28 07:54:30;;;;;;;3.80;2.55;;;9.40;99.90;;;;;;4902026;29;20216;-74
2023/12/28 07:56:57;;;;;;;1.98;1.90;;;9.40;99.90;;;;;;4897337;29;20216;-74
2023/12/28 07:59:24;;;;;;;1.77;1.67;;;9.40;99.90;;;;;;4902126;29;20218;-74
2023/12/28 08:01:50;;;;;;;1.90;1.80;;;9.40;99.90;;;;;;4900766;29;20258;-74
2023/12/28 08:04:17;;;;;;;3.65;1.83;;;9.40;99.90;;;;;;4900890;29;20209;-73
2023/12/28 08:06:44;;;;;;;4.05;2.25;;;9.40;99.90;;;;;;4904960;29;20213;-74
2023/12/28 08:09:11;;;;;;;1.90;1.80;;;9.50;99.90;;;;;;4895574;29;20257;-73
2023/12/28 08:11:39;;;;;;;4.85;2.25;;;9.50;99.90;;;;;;4893542;29;20232;-74
2023/12/28 08:14:06;;;;;;;2.38;2.03;;;9.50;99.90;;;;;;4902321;29;20221;-73
2023/12/28 08:16:34;;;;;;;1.80;1.70;;;9.50;99.90;;;;;;4903579;29;20221;-74
2023/12/28 08:19:01;;;;;;;1.65;1.65;;;9.50;99.90;;;;;;4896557;29;20220;-74
2023/12/28 08:21:28;;;;;;;1.75;1.75;;;9.60;99.90;;;;;;4901278;29;20728;-74
2023/12/28 08:23:55;;;;;;;1.83;1.77;;;9.60;99.90;;;;;;4904204;29;20220;-74
2023/12/28 08:26:21;;;;;;;1.15;1.15;;;9.60;99.90;;;;;;4898697;29;20229;-74
2023/12/28 08:28:49;;;;;;;3.53;2.15;;;9.70;99.90;;;;;;4898850;29;20229;-74
2023/12/28 08:31:16;;;;;;;2.35;2.15;;;9.70;99.90;;;;;;4901712;29;20237;-74
2023/12/28 08:33:43;;;;;;;2.85;1.92;;;9.80;99.90;;;;;;4901920;29;20205;-74
2023/12/28 08:36:11;;;;;;;1.20;1.20;;;9.80;99.90;;;;;;4904753;29;20628;-74
2023/12/28 08:38:38;;;;;;;8.68;3.28;;;9.90;99.90;;;;;;4903699;29;20255;-74
2023/12/28 08:41:08;;;;;;;1.70;1.70;;;10.00;99.90;;;;;;4900552;29;20233;-75
2023/12/28 08:43:35;;;;;;;1.30;1.30;;;9.90;99.90;;;;;;4901469;29;20217;-74
2023/12/28 08:46:03;;;;;;;1.80;1.70;;;10.00;99.90;;;;;;4898133;29;20226;-74
2023/12/28 08:48:30;;;;;;;1.23;1.23;;;10.10;99.90;;;;;;4902331;29;20234;-73
2023/12/28 08:50:57;;;;;;;2.63;1.67;;;10.10;99.90;;;;;;4899694;29;20230;-74
2023/12/28 08:53:23;;;;;;;1.83;1.75;;;10.20;99.90;;;;;;4901476;29;20218;-74
2023/12/28 08:55:50;;;;;;;2.42;2.22;;;10.20;99.90;;;;;;4907179;29;20565;-74
2023/12/28 08:58:17;;;;;;;4.78;1.80;;;10.30;99.90;;;;;;4903482;29;20210;-74
2023/12/28 09:00:45;;;;;;;1.50;1.50;;;10.30;99.90;;;;;;4901350;29;20235;-75
2023/12/28 09:03:13;;;;;;;2.85;2.72;;;10.30;99.90;;;;;;4901755;29;20228;-74
2023/12/28 09:05:39;;;;;;;1.58;1.50;;;10.30;99.90;;;;;;4900840;29;20218;-73
2023/12/28 09:08:07;;;;;;;3.03;1.55;;;10.20;99.90;;;;;;4899058;29;20229;-72
2023/12/28 09:10:34;;;;;;;1.60;1.50;;;10.20;99.90;;;;;;4896556;29;20642;-73
2023/12/28 09:13:01;;;;;;;2.40;1.88;;;10.20;99.90;;;;;;4897592;29;20228;-72
2023/12/28 09:15:28;;;;;;;1.95;1.40;;;10.30;99.90;;;;;;4897581;29;20229;-72
2023/12/28 09:17:56;;;;;;;2.33;1.52;;;10.40;99.90;;;;;;4898233;29;20218;-72
2023/12/28 09:20:24;;;;;;;1.35;1.25;;;10.50;99.90;;;;;;4897762;29;20225;-75
2023/12/28 09:22:56;;;;;;;1.70;1.60;;;10.50;99.90;;;;;;4895983;29;20713;-72
2023/12/28 09:25:22;;;;;;;2.25;1.25;;;10.50;99.90;;;;;;4898963;29;20226;-72
2023/12/28 09:27:49;;;;;;;1.30;1.20;;;10.60;99.90;;;;;;4896825;29;20782;-72
2023/12/28 09:30:16;;;;;;;2.38;1.77;;;10.60;99.90;;;;;;4899636;29;20214;-73
2023/12/28 09:32:43;;;;;;;3.40;1.67;;;10.50;99.90;;;;;;4895933;29;20599;-73
2023/12/28 09:35:09;;;;;;;2.35;1.15;;;10.60;99.90;;;;;;4897683;29;20224;-73
2023/12/28 09:37:37;;;;;;;6.07;1.38;;;10.60;99.90;;;;;;4897996;29;20746;-73
2023/12/28 09:40:05;;;;;;;2.83;1.70;;;10.70;99.90;;;;;;4897962;29;20230;-73
2023/12/28 09:42:40;;;;;;;2.30;1.50;;;10.70;99.90;;;;;;4898070;29;20232;-74
2023/12/28 09:45:09;;;;;;;2.70;1.23;;;10.70;99.90;;;;;;4893577;29;20214;-72
2023/12/28 09:47:36;;;;;;;2.75;1.60;;;10.70;99.90;;;;;;4896127;29;20215;-73
2023/12/28 09:50:03;;;;;;;3.80;1.45;;;10.70;99.90;;;;;;4897573;29;20210;-73
2023/12/28 09:52:30;;;;;;;1.45;1.13;;;10.80;99.90;;;;;;4890213;29;20711;-74
2023/12/28 09:54:58;;;;;;;1.90;1.80;;;10.90;99.90;;;;;;4895880;29;20214;-74
2023/12/28 09:57:25;;;;;;;6.07;1.60;;;11.00;99.90;;;;;;4893066;29;20210;-74
2023/12/28 09:59:52;;;;;;;1.25;1.25;;;11.00;99.90;;;;;;4888160;29;20206;-74
2023/12/28 10:02:19;;;;;;;1.75;1.10;;;11.00;99.90;;;;;;4893003;29;20257;-73
2023/12/28 10:04:45;;;;;;;1.98;1.80;;;11.00;99.90;;;;;;4897391;29;20318;-73
2023/12/28 10:07:12;;;;;;;2.65;1.50;;;11.10;99.90;;;;;;4892745;29;20222;-74
2023/12/28 10:09:39;;;;;;;0.80;0.80;;;11.10;99.90;;;;;;4892625;29;20227;-73
2023/12/28 10:12:08;;;;;;;0.75;0.75;;;11.10;99.90;;;;;;4890459;29;20713;-75
2023/12/28 10:14:35;;;;;;;1.10;1.00;;;11.20;99.90;;;;;;4889793;29;20215;-73
2023/12/28 10:17:03;;;;;;;3.40;1.30;;;11.20;99.90;;;;;;4897256;29;20218;-71
2023/12/28 10:19:29;;;;;;;2.55;0.85;;;11.20;99.90;;;;;;4893176;29;20266;-74
2023/12/28 10:21:56;;;;;;;1.27;1.25;;;11.30;99.90;;;;;;4895783;29;20872;-73
2023/12/28 10:24:23;;;;;;;1.50;1.50;;;11.40;99.90;;;;;;4896568;29;20215;-72
2023/12/28 10:26:50;;;;;;;0.90;0.90;;;11.40;99.90;;;;;;4891261;29;20215;-71
2023/12/28 10:29:18;;;;;;;2.05;1.40;;;11.40;99.90;;;;;;4895012;29;20840;-72
2023/12/28 10:31:49;;;;;;;1.58;1.00;;;11.40;99.90;;;;;;4895912;29;20282;-72
2023/12/28 10:34:16;;;;;;;1.55;1.10;;;11.40;99.90;;;;;;4895372;29;20636;-71
2023/12/28 10:36:43;;;;;;;1.17;1.17;;;11.40;99.90;;;;;;4892957;29;20621;-75
2023/12/28 10:39:11;;;;;;;4.80;1.30;;;11.40;99.90;;;;;;4896423;29;20207;-74
2023/12/28 10:41:39;;;;;;;1.63;1.17;;;11.50;99.90;;;;;;4895689;29;20245;-74
2023/12/28 10:44:06;;;;;;;1.25;1.20;;;11.40;99.90;;;;;;4895103;29;20214;-72
2023/12/28 10:46:40;;;;;;;1.30;1.20;;;11.40;99.90;;;;;;4893511;29;20270;-71
2023/12/28 10:49:11;;;;;;;1.10;1.10;;;11.40;99.90;;;;;;4889474;29;20584;-72
2023/12/28 10:51:43;;;;;;;1.65;1.08;;;11.40;99.90;;;;;;4895748;29;20314;-74
2023/12/28 10:54:23;;;;;;;1.45;1.35;;;11.40;99.90;;;;;;4896418;29;20211;-72
2023/12/28 10:56:56;;;;;;;1.70;1.60;;;11.40;99.90;;;;;;4894354;29;20211;-73
2023/12/28 10:59:31;;;;;;;1.45;1.45;;;11.40;99.90;;;;;;4894498;29;20207;-72
2023/12/28 11:02:03;;;;;;;3.30;1.33;;;11.40;99.90;;;;;;4895942;29;20248;-72
2023/12/28 11:04:38;;;;;;;2.67;1.20;;;11.40;99.90;;;;;;4895844;29;20294;-71
2023/12/28 11:07:07;;;;;;;6.30;1.67;;;11.40;99.90;;;;;;4886197;29;20211;-73
2023/12/28 11:09:35;;;;;;;2.70;1.25;;;11.40;99.90;;;;;;4893499;29;20235;-74
2023/12/28 11:12:04;;;;;;;4.15;1.60;;;11.40;99.90;;;;;;4893523;29;20295;-73
2023/12/28 11:14:32;;;;;;;1.75;1.13;;;11.40;99.90;;;;;;4896175;29;20215;-74
2023/12/28 11:17:01;;;;;;;1.67;1.45;;;11.30;99.90;;;;;;4899401;29;20215;-74
2023/12/28 11:19:28;;;;;;;1.38;1.27;;;11.30;99.90;;;;;;4899707;29;20214;-73
2023/12/28 11:21:57;;;;;;;2.53;1.20;;;11.30;99.90;;;;;;4899527;29;20238;-73
2023/12/28 11:24:24;;;;;;;1.92;1.48;;;11.20;99.90;;;;;;4892521;29;20215;-74
2023/12/28 11:26:54;;;;;;;2.15;1.75;;;11.20;99.90;;;;;;4897990;29;20219;-72
2023/12/28 11:29:21;;;;;;;1.30;1.25;;;11.20;99.90;;;;;;4893024;29;20749;-72
2023/12/28 11:31:52;;;;;;;1.65;1.40;;;11.20;99.90;;;;;;4897755;29;20255;-73
2023/12/28 11:34:20;;;;;;;4.07;1.75;;;11.20;99.90;;;;;;4886404;29;20212;-73
2023/12/28 11:36:51;;;;;;;2.30;1.23;;;11.20;99.90;;;;;;4896698;29;20219;-72
2023/12/28 11:39:29;;;;;;;1.80;1.70;;;11.20;99.90;;;;;;4899223;29;21177;-74
2023/12/28 11:42:02;;;;;;;3.83;1.33;;;11.20;99.90;;;;;;4897761;29;20507;-75
2023/12/28 11:44:29;;;;;;;3.60;1.65;;;11.30;99.90;;;;;;4898844;29;20467;-75
2023/12/28 11:46:57;;;;;;;1.95;1.40;;;11.30;99.90;;;;;;4898585;29;20207;-74
2023/12/28 11:49:28;;;;;;;1.47;1.30;;;11.30;99.90;;;;;;4895904;29;20273;-74
2023/12/28 11:51:57;;;;;;;0.93;0.90;;;11.30;99.90;;;;;;4898189;29;21099;-74
2023/12/28 11:54:25;;;;;;;3.58;1.45;;;11.30;99.90;;;;;;4897250;29;20572;-74
2023/12/28 11:56:52;;;;;;;5.07;2.17;;;11.30;99.90;;;;;;4897983;29;20247;-74
2023/12/28 11:59:19;;;;;;;5.35;1.60;;;11.40;99.90;;;;;;4890864;29;20459;-74
2023/12/28 12:01:50;;;;;;;1.50;1.50;;;11.40;99.90;;;;;;4897095;29;20243;-73
2023/12/28 12:04:17;;;;;;;3.07;1.53;;;11.40;99.90;;;;;;4897332;29;20575;-74
2023/12/28 12:06:46;;;;;;;5.15;2.08;;;11.40;99.90;;;;;;4897921;29;20997;-73
2023/12/28 12:09:12;;;;;;;5.40;1.20;;;11.40;99.90;;;;;;4889228;29;20227;-74
2023/12/28 12:11:39;;;;;;;5.17;2.50;;;11.40;99.90;;;;;;4889454;29;20227;-73
2023/12/28 12:14:09;;;;;;;1.67;1.67;;;11.30;99.90;;;;;;4890565;29;20475;-74
2023/12/28 12:16:36;;;;;;;3.40;1.08;;;11.40;99.90;;;;;;4882664;29;20223;-74
2023/12/28 12:19:04;;;;;;;1.40;1.30;;;11.40;99.90;;;;;;4897822;29;20628;-73
2023/12/28 12:21:30;;;;;;;3.42;2.20;;;11.40;99.90;;;;;;4882685;29;20515;-74
2023/12/28 12:23:58;;;;;;;4.28;1.63;;;11.40;99.90;;;;;;4894637;29;20230;-73
2023/12/28 12:26:26;;;;;;;1.70;1.20;;;11.40;99.90;;;;;;4898069;29;20291;-72
2023/12/28 12:28:52;;;;;;;1.33;1.10;;;11.40;99.90;;;;;;4897034;29;20310;-74
2023/12/28 12:31:20;;;;;;;3.38;1.67;;;11.50;99.90;;;;;;4896507;29;20852;-73
2023/12/28 12:33:47;;;;;;;1.63;1.53;;;11.50;99.90;;;;;;4893402;29;20218;-73
2023/12/28 12:36:13;;;;;;;3.20;1.33;;;11.40;99.90;;;;;;4896993;29;20485;-73
2023/12/28 12:38:41;;;;;;;2.78;1.40;;;11.40;99.90;;;;;;4888410;29;20483;-73
2023/12/28 12:41:11;;;;;;;1.35;1.25;;;11.40;99.90;;;;;;4891047;29;20239;-74
2023/12/28 12:43:38;;;;;;;2.30;1.87;;;11.40;99.90;;;;;;4893938;29;20206;-73
2023/12/28 12:46:05;;;;;;;4.13;1.33;;;11.40;99.90;;;;;;4896029;29;20468;-73
2023/12/28 12:48:32;;;;;;;3.10;2.50;;;11.30;99.90;;;;;;4895198;29;20211;-73
2023/12/28 12:50:58;;;;;;;5.13;2.03;;;11.30;99.90;;;;;;4896813;29;20234;-73
2023/12/28 12:53:25;;;;;;;3.38;1.30;;;11.30;99.90;;;;;;4895878;29;20498;-74
2023/12/28 12:55:55;;;;;;;2.77;1.60;;;11.30;99.90;;;;;;4896730;29;20226;-73
2023/12/28 12:58:23;;;;;;;3.33;2.42;;;11.30;99.90;;;;;;4896608;29;20546;-72
2023/12/28 13:00:50;;;;;;;4.20;1.83;;;11.30;99.90;;;;;;4895788;29;20238;-73
2023/12/28 13:03:17;;;;;;;2.05;1.60;;;11.30;99.90;;;;;;4895894;29;20475;-74
2023/12/28 13:05:44;;;;;;;3.28;1.58;;;11.30;99.90;;;;;;4894967;29;20338;-73
2023/12/28 13:08:10;;;;;;;5.43;1.53;;;11.30;99.90;;;;;;4896503;29;20215;-72
2023/12/28 13:10:37;;;;;;;1.42;1.25;;;11.40;99.90;;;;;;4896334;29;20506;-75
2023/12/28 13:13:07;;;;;;;1.75;1.50;;;11.40;99.90;;;;;;4891495;29;20215;-73
2023/12/28 13:15:35;;;;;;;2.47;1.90;;;11.30;99.90;;;;;;4893216;29;20215;-73
2023/12/28 13:18:02;;;;;;;2.38;1.63;;;11.30;99.90;;;;;;4896074;29;20468;-73
2023/12/28 13:20:29;;;;;;;1.10;1.10;;;11.30;99.90;;;;;;4895716;29;20538;-73
2023/12/28 13:22:56;;;;;;;2.15;1.80;;;11.20;99.90;;;;;;4895477;29;20222;-74
2023/12/28 13:25:23;;;;;;;2.90;1.35;;;11.20;99.90;;;;;;4894773;29;20207;-73
2023/12/28 13:27:50;;;;;;;3.72;1.25;;;11.20;99.90;;;;;;4894752;29;20207;-72
2023/12/28 13:30:17;;;;;;;1.58;1.50;;;11.20;99.90;;;;;;4894104;29;20227;-72
2023/12/28 13:32:45;;;;;;;6.25;1.30;;;11.30;99.90;;;;;;4892217;29;20219;-72
2023/12/28 13:35:11;;;;;;;3.53;1.98;;;11.20;99.90;;;;;;4890825;29;20226;-72
2023/12/28 13:37:38;;;;;;;3.80;1.77;;;11.20;99.90;;;;;;4892384;29;20211;-72
2023/12/28 13:40:06;;;;;;;2.28;2.17;;;11.20;99.90;;;;;;4893249;29;20522;-72
2023/12/28 13:42:33;;;;;;;1.30;1.30;;;11.20;99.90;;;;;;4895402;29;20386;-72
2023/12/28 13:45:00;;;;;;;2.08;1.30;;;11.20;99.90;;;;;;4895255;29;20216;-73
2023/12/28 13:47:27;;;;;;;3.40;1.55;;;11.20;99.90;;;;;;4895936;29;20215;-72
2023/12/28 13:49:55;;;;;;;4.80;1.40;;;11.20;99.90;;;;;;4894793;29;20223;-74
2023/12/28 13:52:22;;;;;;;1.48;1.38;;;11.20;99.90;;;;;;4895538;29;20244;-74
2023/12/28 13:54:49;;;;;;;2.08;1.90;;;11.10;99.90;;;;;;4887730;29;20224;-73
2023/12/28 13:57:16;;;;;;;5.93;1.40;;;11.10;99.90;;;;;;4895170;29;20289;-73
2023/12/28 13:59:43;;;;;;;5.85;1.20;;;11.10;99.90;;;;;;4894982;29;20203;-73
2023/12/28 14:02:10;;;;;;;2.10;1.88;;;11.10;99.90;;;;;;4895384;29;20238;-72
2023/12/28 14:04:36;;;;;;;3.35;1.42;;;11.10;99.90;;;;;;4894871;29;20667;-74
2023/12/28 14:07:04;;;;;;;1.60;1.10;;;11.00;99.90;;;;;;4894581;29;20211;-72
2023/12/28 14:09:32;;;;;;;7.07;1.98;;;11.00;99.90;;;;;;4895180;29;20238;-73
2023/12/28 14:11:59;;;;;;;3.03;1.40;;;11.00;99.90;;;;;;4887563;29;20687;-73
2023/12/28 14:14:26;;;;;;;3.25;1.80;;;11.00;99.90;;;;;;4889214;29;20215;-72
2023/12/28 14:16:53;;;;;;;2.20;1.90;;;11.00;99.90;;;;;;4894142;29;20218;-73
2023/12/28 14:19:19;;;;;;;2.78;2.35;;;11.00;99.90;;;;;;4896243;29;20211;-72
2023/12/28 14:21:47;;;;;;;1.63;1.42;;;11.00;99.90;;;;;;4894892;29;20237;-74
2023/12/28 14:24:17;;;;;;;1.90;1.80;;;11.00;99.90;;;;;;4894639;29;20770;-72
2023/12/28 14:26:46;;;;;;;5.35;1.55;;;10.90;99.90;;;;;;4893146;29;20210;-73
2023/12/28 14:29:13;;;;;;;2.25;1.70;;;10.90;99.90;;;;;;4894670;29;20219;-73
2023/12/28 14:31:40;;;;;;;3.33;1.80;;;10.90;99.90;;;;;;4894955;29;20225;-73
2023/12/28 14:34:08;;;;;;;4.95;1.98;;;10.90;99.90;;;;;;4891416;29;20225;-73
2023/12/28 14:36:37;;;;;;;2.35;1.60;;;10.90;99.90;;;;;;4895025;29;20229;-74
2023/12/28 14:39:06;;;;;;;4.25;1.88;;;10.90;99.90;;;;;;4893961;29;20243;-73
2023/12/28 14:41:34;;;;;;;1.35;1.23;;;10.90;99.90;;;;;;4893748;29;20326;-73
2023/12/28 14:44:01;;;;;;;6.05;2.17;;;10.90;99.90;;;;;;4894056;29;20245;-73
2023/12/28 14:46:28;;;;;;;2.58;1.60;;;10.90;99.90;;;;;;4894527;29;20221;-73
2023/12/28 14:48:55;;;;;;;4.20;1.50;;;10.90;99.90;;;;;;4894217;29;20230;-73
2023/12/28 14:51:22;;;;;;;1.98;1.88;;;10.90;99.90;;;;;;4894473;29;20603;-73
2023/12/28 14:53:50;;;;;;;3.10;1.63;;;10.90;99.90;;;;;;4893519;29;20211;-74
2023/12/28 14:56:16;;;;;;;4.00;1.90;;;10.80;99.90;;;;;;4894023;29;20231;-73
2023/12/28 14:58:46;;;;;;;3.60;1.60;;;10.80;99.90;;;;;;4894549;29;20222;-73
2023/12/28 15:01:14;;;;;;;3.53;2.30;;;10.80;99.90;;;;;;4894485;29;20241;-73
2023/12/28 15:03:41;;;;;;;7.07;1.95;;;10.80;99.90;;;;;;4894737;29;20239;-73
2023/12/28 15:06:07;;;;;;;2.15;1.45;;;10.80;99.90;;;;;;4894183;29;20224;-73
2023/12/28 15:08:34;;;;;;;2.33;2.13;;;10.80;99.90;;;;;;4894900;29;20642;-73
2023/12/28 15:11:02;;;;;;;7.13;1.95;;;10.70;99.90;;;;;;4886914;29;20239;-72
2023/12/28 15:13:30;;;;;;;1.23;1.23;;;10.80;99.90;;;;;;4894401;29;20218;-73
2023/12/28 15:15:58;;;;;;;3.78;1.83;;;10.80;99.90;;;;;;4893090;29;20249;-73
2023/12/28 15:18:26;;;;;;;2.17;1.38;;;10.80;99.90;;;;;;4894528;29;20229;-72
2023/12/28 15:20:53;;;;;;;5.95;1.63;;;10.80;99.90;;;;;;4888269;29;20234;-72
2023/12/28 15:23:20;;;;;;;3.80;1.70;;;10.80;99.90;;;;;;4888080;29;20215;-72
2023/12/28 15:25:47;;;;;;;5.70;3.17;;;10.80;99.90;;;;;;4892196;29;20206;-71
2023/12/28 15:28:14;;;;;;;4.03;2.00;;;10.70;99.90;;;;;;4888083;29;20230;-72
2023/12/28 15:30:41;;;;;;;5.30;2.20;;;10.70;99.90;;;;;;4893449;29;20234;-71
2023/12/28 15:33:09;;;;;;;2.42;2.00;;;10.80;99.90;;;;;;4887699;29;20211;-71
2023/12/28 15:35:38;;;;;;;8.38;2.33;;;10.70;99.90;;;;;;4893131;29;20234;-73
2023/12/28 15:38:05;;;;;;;3.15;1.60;;;10.70;99.90;;;;;;4893407;29;20229;-71
2023/12/28 15:40:32;;;;;;;4.80;2.03;;;10.70;99.90;;;;;;4893548;29;20233;-71
2023/12/28 15:42:59;;;;;;;2.03;1.60;;;10.70;99.90;;;;;;4893315;29;20222;-70
2023/12/28 15:45:27;;;;;;;4.90;1.55;;;10.70;99.90;;;;;;4892644;29;20222;-70
2023/12/28 15:47:53;;;;;;;5.50;1.88;;;10.70;99.90;;;;;;4893681;29;20215;-71
2023/12/28 15:50:21;;;;;;;4.38;1.92;;;10.70;99.90;;;;;;4893999;29;20241;-73
2023/12/28 15:52:48;;;;;;;2.25;2.05;;;10.70;99.90;;;;;;4891879;29;20206;-74
2023/12/28 15:55:15;;;;;;;3.67;1.67;;;10.70;99.90;;;;;;4894237;29;20605;-71
2023/12/28 15:57:41;;;;;;;1.67;1.27;;;10.70;99.90;;;;;;4894494;29;20215;-71
2023/12/28 16:00:09;;;;;;;1.67;1.67;;;10.60;99.90;;;;;;4895442;29;20199;-73
2023/12/28 16:02:36;;;;;;;5.75;2.72;;;10.70;99.90;;;;;;4895860;29;20234;-71
2023/12/28 16:05:03;;;;;;;1.70;1.60;;;10.70;99.90;;;;;;4891792;29;20214;-72
2023/12/28 16:07:31;;;;;;;2.55;1.73;;;10.70;99.90;;;;;;4892334;29;20241;-71
2023/12/28 16:09:57;;;;;;;6.47;1.80;;;10.70;99.90;;;;;;4895517;29;20236;-75
2023/12/28 16:12:24;;;;;;;9.88;2.13;;;10.70;99.90;;;;;;4895761;29;20312;-73
2023/12/28 16:14:52;;;;;;;1.73;1.30;;;10.70;99.90;;;;;;4896864;29;20210;-72
2023/12/28 16:17:19;;;;;;;2.50;1.70;;;10.70;99.90;;;;;;4894539;29;20233;-71
2023/12/28 16:19:46;;;;;;;1.75;1.75;;;10.70;99.90;;;;;;4889558;29;20238;-71
2023/12/28 16:22:14;;;;;;;2.35;1.90;;;10.70;99.90;;;;;;4894940;29;20230;-71
2023/12/28 16:24:42;;;;;;;2.90;1.52;;;10.70;99.90;;;;;;4893242;29;20266;-76
2023/12/28 16:27:09;;;;;;;3.30;1.42;;;10.70;99.90;;;;;;4892500;29;20238;-73
2023/12/28 16:29:35;;;;;;;2.25;1.60;;;10.80;99.90;;;;;;4895065;29;20221;-70
2023/12/28 16:32:02;;;;;;;3.25;2.00;;;10.70;99.90;;;;;;4892959;29;20246;-71
2023/12/28 16:34:29;;;;;;;4.90;1.50;;;10.70;99.90;;;;;;4893629;29;20217;-71
2023/12/28 16:36:56;;;;;;;1.20;1.20;;;10.70;99.90;;;;;;4895413;29;20218;-72
2023/12/28 16:39:22;;;;;;;9.15;1.77;;;10.60;99.90;;;;;;4897243;29;20218;-71
2023/12/28 16:41:51;;;;;;;4.05;1.75;;;10.70;99.90;;;;;;4896936;29;20565;-75
2023/12/28 16:44:17;;;;;;;1.35;1.23;;;10.60;99.90;;;;;;4896711;29;20219;-71
2023/12/28 16:46:46;;;;;;;2.08;1.40;;;10.60;99.90;;;;;;4894899;29;20210;-71
2023/12/28 16:49:12;;;;;;;2.13;2.03;;;10.60;99.90;;;;;;4895166;29;20207;-71
2023/12/28 16:51:39;;;;;;;3.42;1.60;;;10.60;99.90;;;;;;4895304;29;20325;-71
2023/12/28 16:54:06;;;;;;;1.48;1.38;;;10.60;99.90;;;;;;4896557;29;20246;-71
2023/12/28 16:56:33;;;;;;;4.18;1.75;;;10.60;99.90;;;;;;4892460;29;20236;-71
2023/12/28 16:59:01;;;;;;;1.65;1.55;;;10.60;99.90;;;;;;4894790;29;20226;-70
2023/12/28 17:01:27;;;;;;;4.13;1.90;;;10.60;99.90;;;;;;4894410;29;20241;-70
2023/12/28 17:03:54;;;;;;;2.22;2.05;;;10.70;99.90;;;;;;4894389;29;20630;-70
2023/12/28 17:06:21;;;;;;;1.73;1.40;;;10.70;99.90;;;;;;4894009;29;20222;-69
2023/12/28 17:08:48;;;;;;;6.22;1.67;;;10.60;99.90;;;;;;4894601;29;20214;-70
2023/12/28 17:11:17;;;;;;;1.85;1.15;;;10.60;99.90;;;;;;4895368;29;20241;-68
2023/12/28 17:13:44;;;;;;;2.20;1.08;;;10.60;99.90;;;;;;4895613;29;20220;-72
2023/12/28 17:16:13;;;;;;;3.95;1.83;;;10.60;99.90;;;;;;4893264;29;21768;-69
2023/12/28 17:18:40;;;;;;;1.75;1.30;;;10.50;99.90;;;;;;4887684;29;20306;-75
2023/12/28 17:21:12;;;;;;;6.90;1.95;;;10.50;99.90;;;;;;4886210;29;20238;-70
2023/12/28 17:23:43;;;;;;;3.95;1.00;;;10.60;99.90;;;;;;4894801;29;20214;-70
2023/12/28 17:26:17;;;;;;;2.90;1.35;;;10.60;99.90;;;;;;4891676;29;20577;-71
2023/12/28 17:28:51;;;;;;;5.22;1.73;;;10.60;99.90;;;;;;4895418;29;20210;-70
2023/12/28 17:31:21;;;;;;;1.38;1.27;;;10.60;99.90;;;;;;4895138;29;20773;-70
2023/12/28 17:33:48;;;;;;;4.88;2.13;;;10.60;99.90;;;;;;4894222;29;20207;-68
2023/12/28 17:36:16;;;;;;;4.85;1.38;;;10.60;99.90;;;;;;4893267;29;20210;-69
2023/12/28 17:38:43;;;;;;;3.58;2.70;;;10.60;99.90;;;;;;4894740;29;20266;-69
2023/12/28 17:41:13;;;;;;;22.67;8.20;;;10.60;99.90;;;;;;4894472;29;20294;-70
2023/12/28 17:43:45;;;;;;;3.35;3.05;;;10.60;99.90;;;;;;4892909;29;20238;-68
2023/12/28 17:46:17;;;;;;;3.70;3.42;;;10.60;99.90;;;;;;4894325;29;20719;-69
2023/12/28 17:48:49;;;;;;;3.67;2.63;;;10.60;99.90;;;;;;4887919;29;20226;-73
2023/12/28 17:51:16;;;;;;;6.82;2.58;;;10.60;99.90;;;;;;4894364;29;20241;-70
2023/12/28 17:53:44;;;;;;;4.65;2.78;;;10.60;99.90;;;;;;4895318;29;20218;-70